Time;durP1;ratioP1;P1;durP2;ratioP2;P2;SDS_P1;SDS_P2;PMS_P1;PMS_P2;Temp;Humidity;BMP_temperature;BMP_pressure;BME280_temperature;BME280_humidity;BME280_pressure;Samples;Min_cycle;Max_cycle;Signal;HPM_P1;HPM_P2
2022/03/13 00:00:48;;;;;;;12.95;2.80;;;;;;;;;;5054426;28;20033;-65
2022/03/13 00:03:15;;;;;;;12.57;2.58;;;;;;;;;;5054926;28;20536;-65
2022/03/13 00:05:42;;;;;;;17.35;2.47;;;;;;;;;;5054201;28;20373;-65
2022/03/13 00:08:16;;;;;;;14.63;4.30;;;;;;;;;;5054553;28;20025;-66
2022/03/13 00:10:47;;;;;;;18.38;3.10;;;;;;;;;;5054249;28;20036;-63
2022/03/13 00:13:18;;;;;;;15.43;3.00;;;;;;;;;;5054114;28;20067;-65
2022/03/13 00:15:45;;;;;;;15.38;2.65;;;;;;;;;;5054353;28;20439;-64
2022/03/13 00:18:13;;;;;;;15.00;3.15;;;;;;;;;;5054303;28;20556;-64
2022/03/13 00:20:39;;;;;;;20.67;2.47;;;;;;;;;;5054067;28;20095;-64
2022/03/13 00:23:06;;;;;;;17.23;3.60;;;;;;;;;;5054326;28;20048;-64
2022/03/13 00:25:33;;;;;;;19.00;2.78;;;;;;;;;;5054086;28;20033;-64
2022/03/13 00:27:59;;;;;;;18.23;2.53;;;;;;;;;;5053730;28;20509;-64
2022/03/13 00:30:25;;;;;;;22.38;4.65;;;;;;;;;;5054278;28;20108;-64
2022/03/13 00:32:52;;;;;;;15.93;2.90;;;;;;;;;;5054014;28;20025;-64
2022/03/13 00:35:18;;;;;;;14.40;3.40;;;;;;;;;;5054017;28;20481;-64
2022/03/13 00:37:44;;;;;;;16.90;3.00;;;;;;;;;;5053742;28;20025;-64
2022/03/13 00:40:12;;;;;;;19.63;3.65;;;;;;;;;;5054077;28;20021;-64
2022/03/13 00:42:38;;;;;;;17.92;2.92;;;;;;;;;;5053224;28;20098;-64
2022/03/13 00:45:04;;;;;;;25.92;3.50;;;;;;;;;;5053871;28;20470;-64
2022/03/13 00:47:31;;;;;;;17.83;3.45;;;;;;;;;;5053693;28;20062;-64
2022/03/13 00:49:57;;;;;;;29.05;3.50;;;;;;;;;;5053899;28;20474;-64
2022/03/13 00:52:23;;;;;;;19.42;3.78;;;;;;;;;;5053613;28;20074;-64
2022/03/13 00:54:49;;;;;;;26.58;3.50;;;;;;;;;;5053368;28;20051;-64
2022/03/13 00:57:16;;;;;;;19.13;3.85;;;;;;;;;;5053380;28;20381;-64
2022/03/13 00:59:42;;;;;;;15.63;3.10;;;;;;;;;;5053371;28;20033;-64
2022/03/13 01:02:10;;;;;;;22.50;3.60;;;;;;;;;;5053482;28;20028;-64
2022/03/13 01:04:43;;;;;;;24.55;3.28;;;;;;;;;;5053311;28;20064;-64
2022/03/13 01:07:09;;;;;;;21.25;3.30;;;;;;;;;;5053378;28;20056;-64
2022/03/13 01:09:36;;;;;;;15.20;3.78;;;;;;;;;;5053065;28;20454;-64
2022/03/13 01:12:03;;;;;;;19.55;3.45;;;;;;;;;;5052656;28;20048;-64
2022/03/13 01:14:32;;;;;;;21.85;4.05;;;;;;;;;;5053120;28;20029;-64
2022/03/13 01:17:03;;;;;;;20.83;4.05;;;;;;;;;;5053361;28;20109;-64
2022/03/13 01:19:30;;;;;;;26.17;4.45;;;;;;;;;;5053316;28;20033;-64
2022/03/13 01:21:56;;;;;;;17.88;3.65;;;;;;;;;;5053017;28;20346;-64
2022/03/13 01:24:44;;;;;;;17.85;3.55;;;;;;;;;;5053212;28;20033;-64
2022/03/13 01:27:15;;;;;;;24.52;4.72;;;;;;;;;;5053173;28;20556;-64
2022/03/13 01:29:42;;;;;;;26.48;5.13;;;;;;;;;;5052711;28;20389;-64
2022/03/13 01:32:10;;;;;;;24.00;4.05;;;;;;;;;;5053224;28;20453;-64
2022/03/13 01:34:44;;;;;;;21.10;4.10;;;;;;;;;;5052919;28;20051;-64
2022/03/13 01:37:15;;;;;;;16.23;3.25;;;;;;;;;;5052911;28;20021;-64
2022/03/13 01:39:41;;;;;;;28.92;5.00;;;;;;;;;;5052350;28;20033;-64
2022/03/13 01:42:07;;;;;;;35.00;5.75;;;;;;;;;;5052958;28;20112;-64
2022/03/13 01:44:33;;;;;;;25.92;4.43;;;;;;;;;;5052749;28;20059;-64
2022/03/13 01:47:03;;;;;;;28.17;3.67;;;;;;;;;;5052778;28;20064;-64
2022/03/13 01:49:29;;;;;;;22.73;3.47;;;;;;;;;;5052671;28;20400;-64
2022/03/13 01:51:57;;;;;;;33.60;5.30;;;;;;;;;;5052600;28;20117;-64
2022/03/13 01:54:23;;;;;;;23.27;3.72;;;;;;;;;;5052351;28;20025;-64
2022/03/13 01:56:49;;;;;;;27.90;3.72;;;;;;;;;;5052566;28;20040;-64
2022/03/13 01:59:16;;;;;;;25.58;3.42;;;;;;;;;;5052687;28;20025;-64
2022/03/13 02:01:43;;;;;;;21.63;4.47;;;;;;;;;;5052418;28;20044;-64
2022/03/13 02:04:11;;;;;;;28.42;4.18;;;;;;;;;;5052869;28;20382;-64
2022/03/13 02:06:37;;;;;;;25.67;3.33;;;;;;;;;;5051229;28;20104;-64
2022/03/13 02:09:06;;;;;;;20.58;3.38;;;;;;;;;;5052387;28;20439;-64
2022/03/13 02:11:40;;;;;;;29.85;4.32;;;;;;;;;;5052397;28;20060;-64
2022/03/13 02:14:07;;;;;;;31.05;5.60;;;;;;;;;;5052438;28;20037;-64
2022/03/13 02:16:33;;;;;;;26.85;3.72;;;;;;;;;;5052666;28;20033;-64
2022/03/13 02:19:00;;;;;;;21.67;4.15;;;;;;;;;;5052574;28;20116;-64
2022/03/13 02:21:27;;;;;;;30.00;5.07;;;;;;;;;;5053373;28;20526;-64
2022/03/13 02:23:59;;;;;;;21.08;5.00;;;;;;;;;;5055816;28;20036;-64
2022/03/13 02:26:25;;;;;;;32.47;4.15;;;;;;;;;;5056576;28;20033;-64
2022/03/13 02:28:53;;;;;;;24.00;4.30;;;;;;;;;;5055136;28;20378;-64
2022/03/13 02:31:28;;;;;;;39.80;4.70;;;;;;;;;;5056379;28;20033;-64
2022/03/13 02:33:55;;;;;;;34.90;4.60;;;;;;;;;;5056157;28;20063;-64
2022/03/13 02:36:24;;;;;;;31.33;4.63;;;;;;;;;;5056374;28;20067;-64
2022/03/13 02:38:51;;;;;;;28.67;4.88;;;;;;;;;;5055716;28;20040;-64
2022/03/13 02:41:17;;;;;;;32.10;4.07;;;;;;;;;;5056195;28;20029;-64
2022/03/13 02:43:43;;;;;;;23.30;4.80;;;;;;;;;;5056018;28;20075;-64
2022/03/13 02:46:17;;;;;;;31.23;5.13;;;;;;;;;;5056161;28;20044;-64
2022/03/13 02:48:43;;;;;;;22.73;4.82;;;;;;;;;;5055801;28;20477;-64
2022/03/13 02:51:09;;;;;;;28.00;4.40;;;;;;;;;;5055908;28;20033;-64
2022/03/13 02:53:35;;;;;;;23.10;3.92;;;;;;;;;;5055850;28;20453;-64
2022/03/13 02:56:03;;;;;;;29.10;6.65;;;;;;;;;;5055896;28;20060;-64
2022/03/13 02:58:29;;;;;;;28.33;4.55;;;;;;;;;;5055824;28;20032;-64
2022/03/13 03:00:57;;;;;;;27.20;4.20;;;;;;;;;;5055526;28;20483;-64
2022/03/13 03:03:26;;;;;;;27.92;4.35;;;;;;;;;;5055910;28;20048;-64
2022/03/13 03:05:53;;;;;;;28.08;5.03;;;;;;;;;;5055346;28;20025;-64
2022/03/13 03:08:20;;;;;;;27.90;4.78;;;;;;;;;;5055530;28;20048;-64
2022/03/13 03:10:46;;;;;;;30.70;4.38;;;;;;;;;;5055619;28;20102;-65
2022/03/13 03:13:13;;;;;;;30.05;4.20;;;;;;;;;;5055343;28;20124;-65
2022/03/13 03:15:40;;;;;;;21.20;4.00;;;;;;;;;;5055732;28;20033;-64
2022/03/13 03:18:10;;;;;;;20.55;4.18;;;;;;;;;;5055511;28;20079;-65
2022/03/13 03:20:37;;;;;;;24.50;5.00;;;;;;;;;;5055528;28;20454;-64
2022/03/13 03:23:03;;;;;;;33.22;4.97;;;;;;;;;;5055379;28;20101;-64
2022/03/13 03:25:29;;;;;;;29.88;5.47;;;;;;;;;;5055357;28;20021;-64
2022/03/13 03:27:57;;;;;;;29.63;4.47;;;;;;;;;;5055299;28;20025;-64
2022/03/13 03:30:24;;;;;;;34.38;5.43;;;;;;;;;;5055530;28;20033;-64
2022/03/13 03:32:51;;;;;;;25.55;4.28;;;;;;;;;;5054660;28;20514;-64
2022/03/13 03:35:19;;;;;;;28.63;5.65;;;;;;;;;;5055210;28;20071;-64
2022/03/13 03:37:47;;;;;;;28.98;4.55;;;;;;;;;;5055365;28;20029;-64
2022/03/13 03:40:14;;;;;;;36.95;6.07;;;;;;;;;;5055285;28;20040;-64
2022/03/13 03:42:40;;;;;;;33.90;4.28;;;;;;;;;;5055300;28;20120;-64
2022/03/13 03:45:07;;;;;;;29.15;5.47;;;;;;;;;;5055138;28;20033;-64
2022/03/13 03:47:33;;;;;;;31.70;4.93;;;;;;;;;;5055046;28;20036;-64
2022/03/13 03:49:59;;;;;;;33.85;4.82;;;;;;;;;;5054483;28;20056;-64
2022/03/13 03:52:26;;;;;;;21.30;3.97;;;;;;;;;;5054959;28;20029;-64
2022/03/13 03:54:52;;;;;;;20.33;3.75;;;;;;;;;;5054853;28;20400;-64
2022/03/13 03:57:19;;;;;;;29.33;5.97;;;;;;;;;;5055016;28;20040;-64
2022/03/13 03:59:45;;;;;;;24.70;4.57;;;;;;;;;;5054692;28;20542;-64
2022/03/13 04:02:12;;;;;;;26.98;3.80;;;;;;;;;;5054763;28;20376;-64
2022/03/13 04:04:39;;;;;;;18.30;3.85;;;;;;;;;;5053040;28;20035;-64
2022/03/13 04:07:05;;;;;;;25.88;4.07;;;;;;;;;;5054496;28;20068;-64
2022/03/13 04:09:31;;;;;;;29.65;4.72;;;;;;;;;;5054885;28;20090;-64
2022/03/13 04:11:58;;;;;;;26.90;4.20;;;;;;;;;;5053969;28;20069;-64
2022/03/13 04:14:25;;;;;;;26.77;3.97;;;;;;;;;;5054621;28;20029;-64
2022/03/13 04:16:53;;;;;;;17.00;4.28;;;;;;;;;;5054481;28;20547;-64
2022/03/13 04:19:20;;;;;;;19.85;3.35;;;;;;;;;;5054118;28;20060;-64
2022/03/13 04:21:46;;;;;;;21.40;4.40;;;;;;;;;;5054569;28;20040;-64
2022/03/13 04:24:13;;;;;;;21.27;3.55;;;;;;;;;;5054314;28;20032;-64
2022/03/13 04:26:40;;;;;;;20.58;5.20;;;;;;;;;;5048410;28;20036;-64
2022/03/13 04:29:07;;;;;;;19.73;3.60;;;;;;;;;;5044700;28;20055;-64
2022/03/13 04:31:35;;;;;;;18.85;3.15;;;;;;;;;;5047266;28;20045;-64
2022/03/13 04:34:01;;;;;;;15.40;2.92;;;;;;;;;;5035836;28;20022;-64
2022/03/13 04:36:28;;;;;;;22.15;3.47;;;;;;;;;;5042360;28;20033;-64
2022/03/13 04:38:54;;;;;;;16.50;3.28;;;;;;;;;;5037186;28;20488;-64
2022/03/13 04:41:20;;;;;;;22.13;3.40;;;;;;;;;;5039859;28;20036;-64
2022/03/13 04:43:47;;;;;;;15.77;3.38;;;;;;;;;;5033680;28;20502;-64
2022/03/13 04:46:15;;;;;;;22.92;5.13;;;;;;;;;;5051469;28;20017;-64
2022/03/13 04:48:41;;;;;;;19.23;2.50;;;;;;;;;;5051570;28;20033;-64
2022/03/13 04:51:07;;;;;;;28.80;3.00;;;;;;;;;;5050290;28;20452;-64
2022/03/13 04:53:34;;;;;;;20.25;2.72;;;;;;;;;;5047675;28;20026;-64
2022/03/13 04:56:00;;;;;;;15.93;3.15;;;;;;;;;;5050675;28;20094;-64
2022/03/13 04:58:26;;;;;;;16.50;3.30;;;;;;;;;;5049528;28;20039;-64
2022/03/13 05:00:53;;;;;;;10.43;2.95;;;;;;;;;;5051843;28;20021;-64
2022/03/13 05:03:19;;;;;;;17.33;2.95;;;;;;;;;;5051315;28;20029;-71
2022/03/13 05:05:46;;;;;;;19.52;2.80;;;;;;;;;;5051348;28;20546;-64
2022/03/13 05:08:15;;;;;;;16.90;4.15;;;;;;;;;;5045886;28;20079;-65
2022/03/13 05:10:43;;;;;;;12.68;2.67;;;;;;;;;;5045737;28;20512;-64
2022/03/13 05:13:11;;;;;;;18.25;3.30;;;;;;;;;;5051088;28;20049;-64
2022/03/13 05:15:39;;;;;;;16.58;3.58;;;;;;;;;;5051596;28;20098;-64
2022/03/13 05:18:05;;;;;;;11.95;2.35;;;;;;;;;;5050700;28;20059;-64
2022/03/13 05:20:34;;;;;;;18.70;2.97;;;;;;;;;;5051683;28;20021;-64
2022/03/13 05:23:00;;;;;;;37.70;6.40;;;;;;;;;;5050845;28;20040;-64
2022/03/13 05:25:27;;;;;;;16.42;2.67;;;;;;;;;;5050490;28;20044;-64
2022/03/13 05:27:53;;;;;;;13.70;2.78;;;;;;;;;;5042566;28;20021;-64
2022/03/13 05:30:23;;;;;;;15.20;2.92;;;;;;;;;;5032790;28;20048;-64
2022/03/13 05:32:49;;;;;;;18.15;3.45;;;;;;;;;;5032255;28;20026;-64
2022/03/13 05:35:16;;;;;;;14.68;3.40;;;;;;;;;;5032509;28;20026;-64
2022/03/13 05:37:42;;;;;;;16.83;2.83;;;;;;;;;;5032700;28;20021;-64
2022/03/13 05:40:13;;;;;;;14.90;2.65;;;;;;;;;;5032593;28;20123;-64
2022/03/13 05:42:44;;;;;;;17.83;2.67;;;;;;;;;;5041987;28;20040;-64
2022/03/13 05:45:15;;;;;;;26.55;4.68;;;;;;;;;;5035990;28;20040;-64
2022/03/13 05:47:44;;;;;;;16.13;2.83;;;;;;;;;;5032138;28;20025;-64
2022/03/13 05:50:10;;;;;;;28.70;3.22;;;;;;;;;;5031799;28;20032;-64
2022/03/13 05:52:36;;;;;;;24.90;4.05;;;;;;;;;;5037719;28;20028;-64
2022/03/13 05:55:02;;;;;;;9.52;2.78;;;;;;;;;;5040243;28;21318;-64
2022/03/13 05:57:28;;;;;;;16.85;2.85;;;;;;;;;;5032990;28;20448;-64
2022/03/13 05:59:54;;;;;;;16.33;2.50;;;;;;;;;;5038410;28;20021;-64
2022/03/13 06:02:22;;;;;;;15.90;2.92;;;;;;;;;;5036944;28;20033;-64
2022/03/13 06:04:51;;;;;;;17.13;2.60;;;;;;;;;;5037433;28;20083;-64
2022/03/13 06:07:17;;;;;;;13.30;3.08;;;;;;;;;;5041219;28;20033;-64
2022/03/13 06:09:44;;;;;;;9.57;3.05;;;;;;;;;;5045507;28;20079;-64
2022/03/13 06:12:10;;;;;;;22.20;4.07;;;;;;;;;;5041961;28;20049;-64
2022/03/13 06:14:36;;;;;;;17.45;3.35;;;;;;;;;;5044273;28;20026;-64
2022/03/13 06:17:02;;;;;;;23.27;5.13;;;;;;;;;;5036626;28;20075;-64
2022/03/13 06:19:28;;;;;;;21.08;6.25;;;;;;;;;;5041684;28;20060;-65
2022/03/13 06:21:55;;;;;;;21.48;5.82;;;;;;;;;;5049803;28;20029;-64
2022/03/13 06:24:21;;;;;;;21.40;4.05;;;;;;;;;;5040773;28;20451;-64
2022/03/13 06:26:47;;;;;;;18.15;3.45;;;;;;;;;;5046050;28;20029;-64
2022/03/13 06:29:14;;;;;;;15.38;3.88;;;;;;;;;;5054079;28;20029;-64
2022/03/13 06:31:40;;;;;;;24.85;6.47;;;;;;;;;;5038455;28;20033;-64
2022/03/13 06:34:07;;;;;;;27.48;4.05;;;;;;;;;;5035829;28;20033;-64
2022/03/13 06:36:34;;;;;;;23.27;4.53;;;;;;;;;;5047094;28;20025;-64
2022/03/13 06:39:00;;;;;;;16.67;3.35;;;;;;;;;;5047555;28;20021;-64
2022/03/13 06:41:27;;;;;;;16.30;3.50;;;;;;;;;;5035069;28;20116;-64
2022/03/13 06:43:53;;;;;;;19.13;3.67;;;;;;;;;;5040335;28;20112;-64
2022/03/13 06:46:19;;;;;;;14.55;3.65;;;;;;;;;;5038489;28;20041;-64
2022/03/13 06:48:45;;;;;;;19.75;3.20;;;;;;;;;;5036195;28;20025;-64
2022/03/13 06:51:12;;;;;;;13.57;3.63;;;;;;;;;;5038446;28;20393;-64
2022/03/13 06:53:38;;;;;;;22.13;2.95;;;;;;;;;;5038184;28;20025;-64
2022/03/13 06:56:04;;;;;;;27.77;6.10;;;;;;;;;;5042000;28;20473;-64
2022/03/13 06:58:30;;;;;;;18.30;3.72;;;;;;;;;;5037858;28;20032;-64
2022/03/13 07:00:56;;;;;;;13.95;2.97;;;;;;;;;;5046756;28;20055;-64
2022/03/13 07:03:23;;;;;;;14.57;3.03;;;;;;;;;;5041290;28;20021;-64
2022/03/13 07:05:49;;;;;;;18.77;3.17;;;;;;;;;;5040264;28;20106;-64
2022/03/13 07:08:15;;;;;;;18.95;3.92;;;;;;;;;;5038640;28;20033;-64
2022/03/13 07:10:42;;;;;;;23.23;3.63;;;;;;;;;;5047720;28;20041;-64
2022/03/13 07:13:09;;;;;;;17.17;2.40;;;;;;;;;;5042542;28;20047;-64
2022/03/13 07:15:36;;;;;;;38.30;5.90;;;;;;;;;;5041426;28;20029;-64
2022/03/13 07:18:02;;;;;;;20.40;4.32;;;;;;;;;;5044093;28;20044;-64
2022/03/13 07:23:04;;;;;;;20.13;3.85;;;;;;;;;;5693208;22;20069;-62
2022/03/13 07:25:30;;;;;;;19.92;3.58;;;;;;;;;;5027665;28;20474;-62
2022/03/13 07:27:58;;;;;;;26.33;4.53;;;;;;;;;;5033973;28;20029;-63
2022/03/13 07:30:24;;;;;;;21.77;3.60;;;;;;;;;;5028112;28;20100;-62
2022/03/13 07:32:50;;;;;;;21.17;3.30;;;;;;;;;;5033255;28;20025;-62
2022/03/13 07:35:16;;;;;;;26.13;3.42;;;;;;;;;;5033712;28;20025;-62
2022/03/13 07:37:45;;;;;;;20.75;3.90;;;;;;;;;;5031424;28;20022;-62
2022/03/13 07:40:11;;;;;;;18.92;3.50;;;;;;;;;;5035289;28;20024;-62
2022/03/13 07:42:38;;;;;;;32.17;5.20;;;;;;;;;;5031944;28;20493;-62
2022/03/13 07:45:04;;;;;;;22.38;5.25;;;;;;;;;;5032729;28;20041;-63
2022/03/13 07:47:31;;;;;;;27.98;4.32;;;;;;;;;;5031043;28;20051;-63
2022/03/13 07:49:57;;;;;;;39.97;5.35;;;;;;;;;;5032762;28;20033;-62
2022/03/13 07:52:24;;;;;;;22.77;5.10;;;;;;;;;;5033302;28;20030;-63
2022/03/13 07:54:50;;;;;;;20.88;4.03;;;;;;;;;;5033548;28;20036;-63
2022/03/13 07:57:16;;;;;;;27.42;4.13;;;;;;;;;;5031794;28;20504;-63
2022/03/13 07:59:42;;;;;;;25.48;4.30;;;;;;;;;;5030031;28;20056;-63
2022/03/13 08:02:09;;;;;;;19.52;3.53;;;;;;;;;;5037698;28;20086;-63
2022/03/13 08:04:35;;;;;;;18.50;3.47;;;;;;;;;;5041256;28;20791;-63
2022/03/13 08:07:01;;;;;;;23.20;4.38;;;;;;;;;;5027519;28;20040;-63
2022/03/13 08:09:27;;;;;;;28.20;4.28;;;;;;;;;;5014782;28;20433;-63
2022/03/13 08:11:53;;;;;;;20.80;3.67;;;;;;;;;;5032464;28;20025;-63
2022/03/13 08:14:19;;;;;;;26.92;4.88;;;;;;;;;;5033125;28;20047;-63
2022/03/13 08:16:45;;;;;;;25.67;4.20;;;;;;;;;;5032953;28;20048;-63
2022/03/13 08:19:12;;;;;;;23.58;3.63;;;;;;;;;;5031873;28;20026;-63
2022/03/13 08:21:38;;;;;;;27.60;4.55;;;;;;;;;;5032723;28;20365;-63
2022/03/13 08:24:07;;;;;;;20.30;3.30;;;;;;;;;;5032130;28;20046;-63
2022/03/13 08:26:40;;;;;;;27.05;4.35;;;;;;;;;;5030490;28;20038;-63
2022/03/13 08:29:09;;;;;;;21.83;3.38;;;;;;;;;;5027926;28;20411;-63
2022/03/13 08:31:35;;;;;;;20.55;3.28;;;;;;;;;;5014980;28;20404;-63
2022/03/13 08:34:07;;;;;;;22.75;3.65;;;;;;;;;;5030298;28;20026;-62
2022/03/13 08:36:37;;;;;;;20.05;3.72;;;;;;;;;;5031197;28;20079;-63
2022/03/13 08:39:04;;;;;;;25.20;4.50;;;;;;;;;;5031216;28;20029;-63
2022/03/13 08:41:30;;;;;;;15.90;3.42;;;;;;;;;;5029506;28;20037;-63
2022/03/13 08:43:56;;;;;;;24.77;5.20;;;;;;;;;;5024318;28;20468;-62
2022/03/13 08:46:22;;;;;;;22.75;4.75;;;;;;;;;;5030022;28;20079;-62
2022/03/13 08:48:49;;;;;;;20.80;3.25;;;;;;;;;;5030827;28;20048;-62
2022/03/13 08:51:18;;;;;;;19.35;3.55;;;;;;;;;;5029500;28;20033;-62
2022/03/13 08:53:45;;;;;;;15.77;3.67;;;;;;;;;;5030452;28;20029;-62
2022/03/13 08:56:13;;;;;;;26.48;4.40;;;;;;;;;;5028577;28;20098;-62
2022/03/13 08:58:43;;;;;;;22.50;3.78;;;;;;;;;;5030091;28;20068;-63
2022/03/13 09:01:09;;;;;;;17.17;3.80;;;;;;;;;;5029942;28;20033;-62
2022/03/13 09:03:36;;;;;;;22.95;3.45;;;;;;;;;;5029635;28;20029;-62
2022/03/13 09:06:02;;;;;;;19.65;4.20;;;;;;;;;;5029725;28;20022;-62
2022/03/13 09:08:29;;;;;;;15.27;2.80;;;;;;;;;;5029833;28;20026;-62
2022/03/13 09:10:55;;;;;;;20.73;4.30;;;;;;;;;;5029029;28;20036;-62
2022/03/13 09:13:22;;;;;;;20.35;4.18;;;;;;;;;;5030902;28;20026;-63
2022/03/13 09:15:48;;;;;;;17.83;4.82;;;;;;;;;;5031666;28;20017;-62
2022/03/13 09:18:14;;;;;;;20.38;3.55;;;;;;;;;;5030447;28;20041;-63
2022/03/13 09:20:41;;;;;;;26.50;7.32;;;;;;;;;;5030852;28;20422;-63
2022/03/13 09:23:07;;;;;;;30.27;5.30;;;;;;;;;;5030483;28;20507;-63
2022/03/13 09:25:34;;;;;;;25.95;4.15;;;;;;;;;;5031531;28;20480;-63
2022/03/13 09:28:00;;;;;;;27.75;5.85;;;;;;;;;;5025971;28;20041;-63
2022/03/13 09:30:27;;;;;;;24.88;3.90;;;;;;;;;;5026394;28;20116;-63
2022/03/13 09:32:54;;;;;;;38.53;5.63;;;;;;;;;;5029596;28;20420;-62
2022/03/13 09:35:20;;;;;;;17.08;3.78;;;;;;;;;;5030173;28;20045;-62
2022/03/13 09:37:47;;;;;;;22.95;4.35;;;;;;;;;;5025617;28;20026;-62
2022/03/13 09:40:15;;;;;;;21.05;4.15;;;;;;;;;;5027486;28;20026;-62
2022/03/13 09:42:42;;;;;;;20.65;3.70;;;;;;;;;;5030606;28;20063;-63
2022/03/13 09:45:08;;;;;;;15.52;2.95;;;;;;;;;;5030989;28;20032;-62
2022/03/13 09:47:36;;;;;;;23.38;4.30;;;;;;;;;;5028458;28;20084;-62
2022/03/13 09:50:02;;;;;;;21.85;3.55;;;;;;;;;;5029540;28;20488;-62
2022/03/13 09:52:30;;;;;;;30.55;5.85;;;;;;;;;;5031149;28;20120;-62
2022/03/13 09:54:56;;;;;;;25.90;4.20;;;;;;;;;;5030325;28;20503;-62
2022/03/13 09:57:22;;;;;;;22.95;3.97;;;;;;;;;;5030352;28;20116;-62
2022/03/13 09:59:48;;;;;;;21.50;4.13;;;;;;;;;;5030681;28;20029;-62
2022/03/13 10:02:14;;;;;;;26.50;3.90;;;;;;;;;;5029947;28;20044;-63
2022/03/13 10:04:40;;;;;;;15.02;3.28;;;;;;;;;;5028836;28;20095;-63
2022/03/13 10:07:15;;;;;;;17.30;3.83;;;;;;;;;;5027678;28;20036;-63
2022/03/13 10:09:43;;;;;;;18.95;4.18;;;;;;;;;;5029762;28;20073;-63
2022/03/13 10:12:09;;;;;;;17.10;3.50;;;;;;;;;;5026971;28;20029;-63
2022/03/13 10:14:38;;;;;;;24.38;3.95;;;;;;;;;;5030370;28;20018;-63
2022/03/13 10:17:05;;;;;;;29.05;3.90;;;;;;;;;;5030616;28;20025;-63
2022/03/13 10:19:31;;;;;;;28.30;3.33;;;;;;;;;;5027659;28;20377;-64
2022/03/13 10:22:01;;;;;;;19.80;3.60;;;;;;;;;;5030648;28;20030;-63
2022/03/13 10:24:39;;;;;;;17.25;3.15;;;;;;;;;;5029007;28;20523;-63
2022/03/13 10:27:09;;;;;;;16.63;3.25;;;;;;;;;;5029696;28;20419;-63
2022/03/13 10:29:35;;;;;;;22.88;3.95;;;;;;;;;;5028446;28;20064;-63
2022/03/13 10:32:01;;;;;;;17.02;3.50;;;;;;;;;;5026100;28;20108;-63
2022/03/13 10:34:32;;;;;;;22.92;3.75;;;;;;;;;;5028781;28;20025;-63
2022/03/13 10:36:59;;;;;;;18.80;3.20;;;;;;;;;;5028742;28;20030;-63
2022/03/13 10:39:25;;;;;;;27.73;4.45;;;;;;;;;;5030350;28;20509;-63
2022/03/13 10:42:04;;;;;;;22.02;3.50;;;;;;;;;;5030016;28;20022;-63
2022/03/13 10:44:34;;;;;;;15.65;2.85;;;;;;;;;;5033824;28;20033;-63
2022/03/13 10:47:05;;;;;;;15.98;3.22;;;;;;;;;;5031291;28;20063;-63
2022/03/13 10:49:32;;;;;;;15.50;2.83;;;;;;;;;;5033478;28;20025;-63
2022/03/13 10:51:59;;;;;;;13.63;3.95;;;;;;;;;;5031259;28;20037;-63
2022/03/13 10:54:29;;;;;;;14.25;2.38;;;;;;;;;;5026815;28;20121;-63
2022/03/13 10:57:05;;;;;;;16.58;2.53;;;;;;;;;;5029188;28;20096;-63
2022/03/13 10:59:31;;;;;;;9.90;1.63;;;;;;;;;;5029937;28;20083;-63
2022/03/13 11:02:13;;;;;;;8.27;1.73;;;;;;;;;;5032513;28;20029;-63
2022/03/13 11:04:55;;;;;;;6.90;1.70;;;;;;;;;;5032276;28;20044;-63
2022/03/13 11:07:21;;;;;;;11.32;1.60;;;;;;;;;;5028571;28;20377;-63
2022/03/13 11:09:48;;;;;;;6.60;1.77;;;;;;;;;;5031886;28;20061;-63
2022/03/13 11:12:19;;;;;;;11.07;1.40;;;;;;;;;;5031755;28;20038;-63
2022/03/13 11:14:48;;;;;;;6.28;1.40;;;;;;;;;;5031704;28;20113;-63
2022/03/13 11:17:14;;;;;;;8.38;1.13;;;;;;;;;;5031764;28;20033;-63
2022/03/13 11:19:41;;;;;;;5.80;1.35;;;;;;;;;;5032835;28;20036;-63
2022/03/13 11:22:10;;;;;;;6.60;1.40;;;;;;;;;;5032514;28;20130;-63
2022/03/13 11:24:37;;;;;;;4.05;0.90;;;;;;;;;;5030215;28;20088;-63
2022/03/13 11:27:10;;;;;;;2.10;0.95;;;;;;;;;;5024222;28;20457;-63
2022/03/13 11:29:43;;;;;;;7.75;1.17;;;;;;;;;;5031294;28;20125;-63
2022/03/13 11:32:48;;;;;;;6.50;0.90;;;;;;;;;;5033292;28;20472;-63
2022/03/13 11:35:14;;;;;;;4.03;0.80;;;;;;;;;;4930029;29;20039;-63
2022/03/13 11:37:44;;;;;;;9.05;1.50;;;;;;;;;;4929189;29;20036;-63
2022/03/13 11:40:12;;;;;;;5.43;1.10;;;;;;;;;;4937473;29;20107;-63
2022/03/13 11:42:46;;;;;;;5.95;1.60;;;;;;;;;;4932927;29;20098;-63
2022/03/13 11:45:30;;;;;;;6.35;1.27;;;;;;;;;;4933076;29;20035;-63
2022/03/13 11:47:57;;;;;;;9.07;0.95;;;;;;;;;;4932358;29;20039;-63
2022/03/13 11:50:42;;;;;;;2.40;1.02;;;;;;;;;;4933635;29;20428;-63
2022/03/13 11:53:17;;;;;;;7.68;1.17;;;;;;;;;;4932231;29;20048;-63
2022/03/13 11:55:59;;;;;;;6.25;1.30;;;;;;;;;;4933587;29;20047;-63
2022/03/13 11:58:46;;;;;;;5.00;0.90;;;;;;;;;;4930171;29;20435;-63
2022/03/13 12:01:19;;;;;;;3.58;0.73;;;;;;;;;;4931205;29;20031;-63
2022/03/13 12:04:07;;;;;;;2.35;0.98;;;;;;;;;;4931233;29;20571;-63
2022/03/13 12:06:41;;;;;;;3.50;0.93;;;;;;;;;;5004377;28;20037;-62
2022/03/13 12:09:08;;;;;;;8.07;1.10;;;;;;;;;;5031243;28;20025;-63
2022/03/13 12:11:39;;;;;;;7.03;1.20;;;;;;;;;;5030861;28;20026;-63
2022/03/13 12:14:09;;;;;;;6.95;1.00;;;;;;;;;;5027254;28;20405;-63
2022/03/13 12:16:36;;;;;;;1.75;0.70;;;;;;;;;;5025367;28;20022;-63
2022/03/13 12:19:04;;;;;;;4.43;0.73;;;;;;;;;;5030714;28;20025;-63
2022/03/13 12:21:31;;;;;;;4.30;0.73;;;;;;;;;;5031285;28;20112;-63
2022/03/13 12:24:09;;;;;;;2.17;0.45;;;;;;;;;;5030727;28;20041;-63
2022/03/13 12:26:38;;;;;;;1.25;0.50;;;;;;;;;;5025729;28;20432;-63
2022/03/13 12:29:04;;;;;;;2.53;0.63;;;;;;;;;;5030604;28;20548;-63
2022/03/13 12:31:38;;;;;;;2.15;0.68;;;;;;;;;;5028781;28;20112;-63
2022/03/13 12:34:04;;;;;;;0.47;0.45;;;;;;;;;;5024287;28;20080;-63
2022/03/13 12:36:40;;;;;;;2.17;0.80;;;;;;;;;;5031680;28;20026;-63
2022/03/13 12:39:14;;;;;;;1.75;0.60;;;;;;;;;;5031547;28;20051;-63
2022/03/13 12:41:44;;;;;;;3.17;1.13;;;;;;;;;;5030200;28;20083;-63
2022/03/13 12:44:16;;;;;;;0.60;0.50;;;;;;;;;;5031766;28;20030;-63
2022/03/13 12:46:42;;;;;;;6.93;0.90;;;;;;;;;;5031664;28;20029;-63
2022/03/13 12:49:12;;;;;;;4.13;1.02;;;;;;;;;;5030896;28;20025;-63
2022/03/13 12:51:41;;;;;;;7.13;0.95;;;;;;;;;;5029911;28;20120;-63
2022/03/13 12:54:08;;;;;;;2.03;0.40;;;;;;;;;;5031564;28;20026;-63
2022/03/13 12:56:36;;;;;;;1.83;0.40;;;;;;;;;;5028983;28;20124;-63
2022/03/13 12:59:02;;;;;;;6.13;0.63;;;;;;;;;;5031665;28;20026;-63
2022/03/13 13:01:29;;;;;;;5.10;0.80;;;;;;;;;;5030958;28;20504;-64
2022/03/13 13:03:55;;;;;;;7.97;1.33;;;;;;;;;;5029658;28;20029;-64
2022/03/13 13:06:31;;;;;;;2.20;0.68;;;;;;;;;;5030045;28;20091;-64
2022/03/13 13:08:57;;;;;;;7.18;0.90;;;;;;;;;;5030556;28;20116;-63
2022/03/13 13:11:34;;;;;;;5.97;1.30;;;;;;;;;;5029981;28;20393;-64
2022/03/13 13:14:01;;;;;;;15.48;1.60;;;;;;;;;;5029678;28;20032;-64
2022/03/13 13:16:35;;;;;;;7.32;1.73;;;;;;;;;;5031922;28;21332;-63
2022/03/13 13:19:02;;;;;;;3.85;1.05;;;;;;;;;;5031080;28;20017;-63
2022/03/13 13:21:41;;;;;;;9.52;1.25;;;;;;;;;;5031605;28;20373;-63
2022/03/13 13:24:37;;;;;;;7.18;1.38;;;;;;;;;;5030812;28;20050;-63
2022/03/13 13:27:04;;;;;;;5.38;1.25;;;;;;;;;;5031486;28;20069;-74
2022/03/13 13:29:37;;;;;;;6.43;1.20;;;;;;;;;;5030807;28;20515;-63
2022/03/13 13:32:22;;;;;;;9.25;1.70;;;;;;;;;;5029144;28;20392;-64
2022/03/13 13:35:08;;;;;;;8.07;1.35;;;;;;;;;;5027309;28;20025;-64
2022/03/13 13:37:35;;;;;;;7.75;1.20;;;;;;;;;;5030473;28;20018;-69
2022/03/13 13:40:08;;;;;;;9.25;1.45;;;;;;;;;;5029116;28;20075;-65
2022/03/13 13:42:39;;;;;;;15.57;2.00;;;;;;;;;;5030487;28;20033;-70
2022/03/13 13:45:26;;;;;;;13.48;1.65;;;;;;;;;;5029539;28;20508;-63
2022/03/13 13:47:52;;;;;;;11.30;1.70;;;;;;;;;;5027939;28;20037;-65
2022/03/13 13:50:22;;;;;;;18.63;2.40;;;;;;;;;;5029697;28;20412;-64
2022/03/13 13:53:02;;;;;;;8.85;1.95;;;;;;;;;;5029289;28;20496;-66
2022/03/13 13:55:34;;;;;;;17.67;2.20;;;;;;;;;;5029776;28;20025;-64
2022/03/13 13:58:20;;;;;;;14.65;3.00;;;;;;;;;;5030854;28;20032;-68
2022/03/13 14:00:47;;;;;;;7.97;1.70;;;;;;;;;;5032115;28;20029;-64
2022/03/13 14:03:13;;;;;;;14.30;2.20;;;;;;;;;;5031078;28;20048;-64
2022/03/13 14:05:40;;;;;;;11.25;1.80;;;;;;;;;;5030428;28;20018;-66
2022/03/13 14:08:07;;;;;;;11.50;1.88;;;;;;;;;;5031083;28;20041;-73
2022/03/13 14:10:33;;;;;;;7.85;1.65;;;;;;;;;;5029764;28;20029;-68
2022/03/13 14:13:00;;;;;;;11.07;1.70;;;;;;;;;;5028982;28;20112;-68
2022/03/13 14:15:26;;;;;;;9.77;1.70;;;;;;;;;;5030571;28;20403;-62
2022/03/13 14:17:52;;;;;;;13.27;1.45;;;;;;;;;;5034029;28;20048;-61
2022/03/13 14:20:19;;;;;;;14.77;2.17;;;;;;;;;;5034648;28;20092;-64
2022/03/13 14:22:45;;;;;;;12.85;2.20;;;;;;;;;;5033776;28;20032;-63
2022/03/13 14:25:11;;;;;;;4.03;1.13;;;;;;;;;;5033039;28;21942;-62
2022/03/13 14:27:38;;;;;;;3.47;1.38;;;;;;;;;;5030326;28;20515;-62
2022/03/13 14:30:05;;;;;;;7.75;1.38;;;;;;;;;;5032293;28;20029;-62
2022/03/13 14:32:31;;;;;;;10.02;1.58;;;;;;;;;;5029953;28;20433;-63
2022/03/13 14:34:58;;;;;;;8.73;1.30;;;;;;;;;;5029384;28;20448;-63
2022/03/13 14:37:24;;;;;;;10.57;1.92;;;;;;;;;;5030270;28;20112;-63
2022/03/13 14:39:51;;;;;;;9.85;1.92;;;;;;;;;;5031636;28;20372;-63
2022/03/13 14:42:21;;;;;;;9.32;1.80;;;;;;;;;;5031243;28;20092;-63